Time;durP1;ratioP1;P1;durP2;ratioP2;P2;SDS_P1;SDS_P2;PMS_P1;PMS_P2;Temp;Humidity;BMP_temperature;BMP_pressure;BME280_temperature;BME280_humidity;BME280_pressure;Samples;Min_cycle;Max_cycle;Signal;HPM_P1;HPM_P2
2021/06/22 00:01:05;;;;;;;9.48;4.70;;;;;;;;;;5103491;28;20031;-50
2021/06/22 00:03:31;;;;;;;6.63;4.25;;;;;;;;;;5110156;28;20451;-49
2021/06/22 00:05:57;;;;;;;6.88;3.90;;;;;;;;;;5108064;28;20107;-52
2021/06/22 00:08:23;;;;;;;7.07;3.65;;;;;;;;;;5111750;28;20027;-49
2021/06/22 00:10:49;;;;;;;7.88;4.78;;;;;;;;;;5112075;28;20099;-51
2021/06/22 00:13:15;;;;;;;7.95;4.20;;;;;;;;;;5110585;28;20110;-50
2021/06/22 00:15:41;;;;;;;8.80;4.30;;;;;;;;;;5111403;28;20110;-51
2021/06/22 00:18:08;;;;;;;8.82;4.30;;;;;;;;;;5112491;28;20475;-49
2021/06/22 00:20:34;;;;;;;7.05;4.32;;;;;;;;;;5111181;28;20153;-51
2021/06/22 00:23:00;;;;;;;7.38;4.85;;;;;;;;;;5112241;28;20059;-49
2021/06/22 00:25:26;;;;;;;8.10;4.22;;;;;;;;;;5111446;28;20579;-50
2021/06/22 00:27:52;;;;;;;7.53;4.00;;;;;;;;;;5110531;28;20027;-50
2021/06/22 00:30:19;;;;;;;8.70;5.07;;;;;;;;;;5100436;28;20371;-51
2021/06/22 00:32:45;;;;;;;7.35;5.10;;;;;;;;;;5107955;28;20027;-49
2021/06/22 00:35:12;;;;;;;9.70;5.20;;;;;;;;;;5111295;28;20027;-52
2021/06/22 00:37:39;;;;;;;9.65;4.65;;;;;;;;;;5111774;28;20032;-49
2021/06/22 00:40:05;;;;;;;7.35;4.95;;;;;;;;;;5111592;28;20486;-49
2021/06/22 00:42:31;;;;;;;7.22;4.90;;;;;;;;;;5111080;28;20113;-50
2021/06/22 00:44:58;;;;;;;9.18;5.68;;;;;;;;;;5111143;28;20417;-54
2021/06/22 00:47:25;;;;;;;7.28;5.47;;;;;;;;;;5110068;28;20027;-49
2021/06/22 00:49:52;;;;;;;7.68;5.15;;;;;;;;;;5108279;28;20095;-50
2021/06/22 00:52:22;;;;;;;12.68;5.93;;;;;;;;;;5108900;28;20114;-50
2021/06/22 00:54:48;;;;;;;10.68;7.13;;;;;;;;;;5109320;28;20097;-52
2021/06/22 00:57:15;;;;;;;11.57;6.45;;;;;;;;;;5111378;28;20532;-52
2021/06/22 00:59:41;;;;;;;12.30;8.07;;;;;;;;;;5094775;28;20055;-50
2021/06/22 01:02:07;;;;;;;9.70;7.63;;;;;;;;;;5096626;28;20081;-47
2021/06/22 01:04:34;;;;;;;10.32;7.03;;;;;;;;;;5104151;28;20725;-48
2021/06/22 01:07:00;;;;;;;8.30;6.88;;;;;;;;;;5110341;28;20470;-47
2021/06/22 01:09:29;;;;;;;15.85;7.70;;;;;;;;;;5098591;28;20032;-49
2021/06/22 01:11:59;;;;;;;9.43;6.45;;;;;;;;;;5099800;28;20056;-47
2021/06/22 01:14:25;;;;;;;10.15;7.75;;;;;;;;;;5095352;28;20066;-47
2021/06/22 01:16:52;;;;;;;11.48;7.68;;;;;;;;;;5114002;28;20114;-48
2021/06/22 01:19:18;;;;;;;11.73;8.25;;;;;;;;;;5114645;28;20542;-48
2021/06/22 01:21:44;;;;;;;12.20;8.13;;;;;;;;;;5114236;28;20020;-47
2021/06/22 01:24:17;;;;;;;9.68;8.30;;;;;;;;;;5113982;28;20020;-52
2021/06/22 01:26:55;;;;;;;13.60;8.40;;;;;;;;;;5112804;28;20019;-49
2021/06/22 01:29:21;;;;;;;15.70;8.23;;;;;;;;;;5105975;28;20021;-48
2021/06/22 01:31:48;;;;;;;10.75;7.38;;;;;;;;;;5109379;28;20123;-48
2021/06/22 01:34:14;;;;;;;10.55;7.28;;;;;;;;;;5114570;28;20467;-48
2021/06/22 01:36:41;;;;;;;12.98;7.60;;;;;;;;;;5107710;28;20032;-51
2021/06/22 01:39:12;;;;;;;13.02;7.28;;;;;;;;;;5108615;28;20025;-48
2021/06/22 01:41:38;;;;;;;10.77;6.88;;;;;;;;;;5109997;28;21646;-49
2021/06/22 01:44:04;;;;;;;11.45;8.65;;;;;;;;;;5114137;28;20493;-49
2021/06/22 01:46:30;;;;;;;11.48;8.00;;;;;;;;;;5110010;28;20084;-48
2021/06/22 01:48:56;;;;;;;10.95;7.72;;;;;;;;;;5103622;28;20558;-49
2021/06/22 01:51:22;;;;;;;11.80;7.72;;;;;;;;;;5108801;28;20032;-48
2021/06/22 01:53:52;;;;;;;11.18;7.10;;;;;;;;;;5106214;28;20066;-49
2021/06/22 01:56:18;;;;;;;10.93;7.47;;;;;;;;;;5112598;28;20027;-48
2021/06/22 01:58:44;;;;;;;12.57;6.75;;;;;;;;;;5105575;28;20031;-48
2021/06/22 02:01:10;;;;;;;11.25;7.28;;;;;;;;;;5107218;28;20023;-47
2021/06/22 02:03:36;;;;;;;16.67;8.20;;;;;;;;;;5113389;28;20106;-48
2021/06/22 02:06:02;;;;;;;12.48;7.30;;;;;;;;;;5109768;28;20032;-48
2021/06/22 02:08:28;;;;;;;12.65;6.55;;;;;;;;;;5107447;28;20125;-48
2021/06/22 02:10:54;;;;;;;11.00;7.50;;;;;;;;;;5114028;28;20046;-49
2021/06/22 02:13:20;;;;;;;10.60;6.78;;;;;;;;;;5112375;28;20024;-48
2021/06/22 02:15:47;;;;;;;13.02;7.13;;;;;;;;;;5108876;28;20058;-48
2021/06/22 02:18:13;;;;;;;12.43;7.13;;;;;;;;;;5093612;28;20107;-49
2021/06/22 02:20:40;;;;;;;9.75;7.30;;;;;;;;;;5093597;28;20024;-48
2021/06/22 02:23:06;;;;;;;8.90;6.43;;;;;;;;;;5105447;28;20544;-48
2021/06/22 02:25:32;;;;;;;13.95;6.30;;;;;;;;;;5111600;28;20106;-49
2021/06/22 02:28:05;;;;;;;11.45;7.32;;;;;;;;;;5113789;28;20031;-52
2021/06/22 02:30:31;;;;;;;;;;;;;;;;;;5107490;28;20047;-48
2021/06/22 02:32:57;;;;;;;12.27;7.45;;;;;;;;;;5103042;28;19955;-47
2021/06/22 02:35:23;;;;;;;10.05;6.30;;;;;;;;;;5096105;28;20153;-48
2021/06/22 02:37:51;;;;;;;10.00;6.47;;;;;;;;;;5110054;28;20511;-48
2021/06/22 02:40:18;;;;;;;12.88;7.88;;;;;;;;;;5113103;28;20051;-48
2021/06/22 02:42:44;;;;;;;11.38;6.78;;;;;;;;;;5113509;28;20123;-48
2021/06/22 02:45:10;;;;;;;10.75;6.65;;;;;;;;;;5108184;28;20031;-48
2021/06/22 02:47:36;;;;;;;11.68;6.50;;;;;;;;;;5112127;28;20110;-50
2021/06/22 02:50:04;;;;;;;10.82;6.50;;;;;;;;;;5112604;28;20057;-47
2021/06/22 02:52:30;;;;;;;9.27;5.80;;;;;;;;;;5097144;28;20112;-48
2021/06/22 02:54:56;;;;;;;15.43;8.02;;;;;;;;;;5092878;28;20051;-48
2021/06/22 02:57:21;;;;;;;16.48;8.70;;;;;;;;;;5105243;28;20427;-47
2021/06/22 02:59:48;;;;;;;15.70;7.35;;;;;;;;;;5095349;28;20119;-48
2021/06/22 03:02:14;;;;;;;16.73;8.55;;;;;;;;;;5092889;28;20403;-48
2021/06/22 03:04:40;;;;;;;18.52;7.82;;;;;;;;;;5104231;28;20058;-48
2021/06/22 03:07:06;;;;;;;19.90;8.38;;;;;;;;;;5112269;28;20034;-48
2021/06/22 03:09:32;;;;;;;16.35;9.00;;;;;;;;;;5095315;28;20418;-48
2021/06/22 03:11:58;;;;;;;16.17;8.60;;;;;;;;;;5092703;28;20446;-48
2021/06/22 03:14:24;;;;;;;18.95;7.63;;;;;;;;;;5092258;28;20172;-49
2021/06/22 03:16:50;;;;;;;14.57;9.23;;;;;;;;;;5074157;28;20028;-48
2021/06/22 03:19:17;;;;;;;17.48;8.13;;;;;;;;;;5107274;28;20028;-52
2021/06/22 03:21:44;;;;;;;14.18;7.65;;;;;;;;;;5112592;28;20058;-50
2021/06/22 03:24:14;;;;;;;22.13;8.32;;;;;;;;;;5092284;28;20373;-50
2021/06/22 03:26:40;;;;;;;16.98;8.38;;;;;;;;;;5104536;28;20075;-50
2021/06/22 03:29:06;;;;;;;23.52;10.57;;;;;;;;;;5111926;28;20493;-48
2021/06/22 03:31:33;;;;;;;20.70;10.52;;;;;;;;;;5096711;28;20074;-48
2021/06/22 03:33:59;;;;;;;16.95;9.13;;;;;;;;;;5106641;28;20028;-49
2021/06/22 03:36:25;;;;;;;15.88;8.52;;;;;;;;;;5111704;28;20050;-48
2021/06/22 03:38:51;;;;;;;19.67;9.98;;;;;;;;;;5112386;28;20023;-49
2021/06/22 03:41:17;;;;;;;22.45;9.02;;;;;;;;;;5099159;28;20024;-48
2021/06/22 03:43:43;;;;;;;14.88;8.52;;;;;;;;;;5098168;28;20117;-48
2021/06/22 03:46:10;;;;;;;17.73;9.90;;;;;;;;;;5108216;28;20047;-49
2021/06/22 03:48:36;;;;;;;14.50;9.55;;;;;;;;;;5110126;28;20414;-48
2021/06/22 03:51:02;;;;;;;16.10;9.93;;;;;;;;;;5107739;28;20035;-47
2021/06/22 03:53:28;;;;;;;18.23;10.10;;;;;;;;;;5099845;28;20059;-48
2021/06/22 03:55:54;;;;;;;18.50;10.65;;;;;;;;;;5105614;28;20111;-48
2021/06/22 03:58:20;;;;;;;15.68;10.60;;;;;;;;;;5105272;28;20123;-48
2021/06/22 04:00:46;;;;;;;26.48;12.07;;;;;;;;;;5105672;28;20032;-48
2021/06/22 04:03:14;;;;;;;26.20;13.80;;;;;;;;;;5108169;28;20043;-49
2021/06/22 04:05:40;;;;;;;25.20;14.73;;;;;;;;;;5104085;28;20028;-51
2021/06/22 04:08:06;;;;;;;29.63;17.13;;;;;;;;;;5106509;28;20056;-50
2021/06/22 04:10:32;;;;;;;29.02;16.52;;;;;;;;;;5100972;28;20398;-50
2021/06/22 04:12:59;;;;;;;30.88;16.55;;;;;;;;;;5112358;28;20463;-49
2021/06/22 04:15:25;;;;;;;28.17;16.38;;;;;;;;;;5111357;28;20042;-48
2021/06/22 04:17:51;;;;;;;29.25;15.38;;;;;;;;;;5105008;28;20514;-49
2021/06/22 04:20:17;;;;;;;33.08;16.00;;;;;;;;;;5109032;28;20031;-49
2021/06/22 04:22:43;;;;;;;30.33;16.85;;;;;;;;;;5108026;28;20028;-48
2021/06/22 04:25:10;;;;;;;24.30;12.77;;;;;;;;;;5106362;28;20111;-48
2021/06/22 04:27:36;;;;;;;24.13;14.82;;;;;;;;;;5115702;28;20070;-48
2021/06/22 04:30:02;;;;;;;23.85;13.77;;;;;;;;;;5107150;28;20063;-48
2021/06/22 04:32:28;;;;;;;23.55;13.30;;;;;;;;;;5106807;28;20028;-48
2021/06/22 04:34:54;;;;;;;19.63;11.18;;;;;;;;;;5114537;28;20023;-48
2021/06/22 04:37:20;;;;;;;21.20;12.07;;;;;;;;;;5106740;28;20039;-48
2021/06/22 04:39:46;;;;;;;20.52;12.38;;;;;;;;;;5105004;28;20027;-48
2021/06/22 04:42:12;;;;;;;21.90;11.95;;;;;;;;;;5098149;28;20036;-52
2021/06/22 04:44:38;;;;;;;18.08;10.60;;;;;;;;;;5096525;28;20387;-47
2021/06/22 04:47:04;;;;;;;17.27;10.63;;;;;;;;;;5103277;28;20035;-47
2021/06/22 04:49:30;;;;;;;19.98;10.43;;;;;;;;;;5103753;28;20490;-47
2021/06/22 04:51:56;;;;;;;16.55;9.02;;;;;;;;;;5095203;28;20093;-48
2021/06/22 04:54:23;;;;;;;17.83;8.18;;;;;;;;;;5101005;28;20063;-47
2021/06/22 04:56:50;;;;;;;15.15;8.70;;;;;;;;;;5108909;28;20032;-49
2021/06/22 04:59:16;;;;;;;14.38;8.27;;;;;;;;;;5113523;28;20100;-47
2021/06/22 05:01:42;;;;;;;14.30;7.25;;;;;;;;;;5109752;28;20020;-48
2021/06/22 05:04:08;;;;;;;13.43;7.85;;;;;;;;;;5111635;28;20034;-48
2021/06/22 05:06:34;;;;;;;11.43;6.85;;;;;;;;;;5114621;28;20028;-50
2021/06/22 05:09:00;;;;;;;11.95;6.88;;;;;;;;;;5110256;28;20119;-49
2021/06/22 05:11:26;;;;;;;15.48;6.75;;;;;;;;;;5096043;28;20036;-48
2021/06/22 05:13:52;;;;;;;11.05;6.07;;;;;;;;;;5096226;28;20035;-48
2021/06/22 05:16:18;;;;;;;9.85;5.75;;;;;;;;;;5109853;28;20028;-47
2021/06/22 05:18:45;;;;;;;8.68;5.25;;;;;;;;;;5107981;28;20479;-48
2021/06/22 05:21:11;;;;;;;10.30;5.07;;;;;;;;;;5114299;28;20023;-49
2021/06/22 05:23:37;;;;;;;9.07;4.65;;;;;;;;;;5113303;28;20488;-47
2021/06/22 05:26:04;;;;;;;7.20;4.07;;;;;;;;;;5113796;28;20752;-48
2021/06/22 05:28:30;;;;;;;9.52;4.20;;;;;;;;;;5102393;28;20107;-48
2021/06/22 05:30:56;;;;;;;11.57;4.18;;;;;;;;;;5114824;28;20371;-49
2021/06/22 05:33:22;;;;;;;7.32;3.28;;;;;;;;;;5108545;28;20100;-49
2021/06/22 05:35:48;;;;;;;7.13;3.42;;;;;;;;;;5113710;28;20094;-48
2021/06/22 05:38:14;;;;;;;7.10;2.88;;;;;;;;;;5113440;28;20110;-48
2021/06/22 05:40:40;;;;;;;7.53;3.00;;;;;;;;;;5108960;28;20349;-48
2021/06/22 05:43:06;;;;;;;9.18;3.05;;;;;;;;;;5100919;28;20114;-48
2021/06/22 05:45:32;;;;;;;5.03;3.08;;;;;;;;;;5101849;28;20043;-49
2021/06/22 05:47:59;;;;;;;4.13;2.88;;;;;;;;;;5101103;28;20036;-48
2021/06/22 05:50:25;;;;;;;6.47;2.97;;;;;;;;;;5098059;28;20027;-48
2021/06/22 05:52:53;;;;;;;2.65;1.80;;;;;;;;;;5106042;28;20851;-47
2021/06/22 05:55:21;;;;;;;4.22;2.67;;;;;;;;;;5099635;28;20071;-48
2021/06/22 05:57:48;;;;;;;8.23;2.90;;;;;;;;;;5097415;28;20532;-48
2021/06/22 06:00:15;;;;;;;5.47;3.28;;;;;;;;;;5102863;28;20031;-49
2021/06/22 06:02:42;;;;;;;8.25;4.13;;;;;;;;;;5096235;28;20088;-48
2021/06/22 06:05:09;;;;;;;8.38;4.00;;;;;;;;;;5101342;28;20085;-50
2021/06/22 06:07:35;;;;;;;7.32;3.88;;;;;;;;;;5103443;28;20422;-51
2021/06/22 06:10:01;;;;;;;6.55;3.88;;;;;;;;;;5100465;28;20113;-47
2021/06/22 06:12:27;;;;;;;4.63;3.60;;;;;;;;;;5100410;28;20110;-48
2021/06/22 06:14:53;;;;;;;5.60;3.17;;;;;;;;;;5109388;28;20051;-48
2021/06/22 06:17:19;;;;;;;4.40;2.70;;;;;;;;;;5110007;28;20028;-48
2021/06/22 06:19:45;;;;;;;4.78;2.92;;;;;;;;;;5103014;28;20106;-47
2021/06/22 06:22:11;;;;;;;4.53;2.53;;;;;;;;;;5112693;28;20034;-49
2021/06/22 06:24:38;;;;;;;5.35;2.83;;;;;;;;;;5112988;28;20023;-48
2021/06/22 06:27:11;;;;;;;6.03;2.20;;;;;;;;;;5113592;28;20100;-47
2021/06/22 06:29:47;;;;;;;5.05;2.17;;;;;;;;;;5103327;28;20043;-47
2021/06/22 06:32:13;;;;;;;3.83;2.13;;;;;;;;;;5113941;28;20755;-48
2021/06/22 06:34:39;;;;;;;4.90;2.00;;;;;;;;;;5112227;28;20039;-49
2021/06/22 06:37:05;;;;;;;2.70;1.80;;;;;;;;;;5113097;28;20378;-48
2021/06/22 06:39:31;;;;;;;2.50;1.77;;;;;;;;;;5109803;28;20103;-47
2021/06/22 06:41:57;;;;;;;2.95;1.95;;;;;;;;;;5112252;28;20098;-47
2021/06/22 06:44:23;;;;;;;4.00;2.08;;;;;;;;;;5112311;28;20365;-48
2021/06/22 06:46:49;;;;;;;4.45;2.92;;;;;;;;;;5113184;28;20051;-48
2021/06/22 06:49:15;;;;;;;4.80;2.70;;;;;;;;;;5112113;28;20518;-47
2021/06/22 06:51:41;;;;;;;8.10;3.55;;;;;;;;;;5112978;28;20027;-49
2021/06/22 06:54:07;;;;;;;5.45;2.63;;;;;;;;;;5113239;28;20038;-47
2021/06/22 06:56:33;;;;;;;4.72;2.75;;;;;;;;;;5105033;28;20020;-49
2021/06/22 06:58:59;;;;;;;4.68;3.17;;;;;;;;;;5113139;28;20054;-48
2021/06/22 07:01:25;;;;;;;3.13;2.30;;;;;;;;;;5113235;28;20023;-47
2021/06/22 07:03:53;;;;;;;3.55;2.33;;;;;;;;;;5108822;28;20460;-48
2021/06/22 07:06:19;;;;;;;4.25;2.42;;;;;;;;;;5109485;28;20393;-47
2021/06/22 07:08:45;;;;;;;9.63;2.30;;;;;;;;;;5113004;28;20522;-48
2021/06/22 07:11:11;;;;;;;4.43;3.00;;;;;;;;;;5112680;28;20034;-49
2021/06/22 07:13:37;;;;;;;6.10;2.40;;;;;;;;;;5112889;28;20035;-47
2021/06/22 07:16:03;;;;;;;6.18;2.80;;;;;;;;;;5112209;28;20020;-47
2021/06/22 07:18:31;;;;;;;4.70;2.95;;;;;;;;;;5112505;28;20066;-48
2021/06/22 07:20:57;;;;;;;9.18;3.10;;;;;;;;;;5112034;28;20128;-48
2021/06/22 07:23:23;;;;;;;3.53;2.70;;;;;;;;;;5112345;28;20490;-48
2021/06/22 07:25:49;;;;;;;5.38;2.85;;;;;;;;;;5111988;28;20030;-47
2021/06/22 07:28:15;;;;;;;4.63;2.90;;;;;;;;;;5112769;28;20027;-48
2021/06/22 07:30:41;;;;;;;7.68;3.22;;;;;;;;;;5105836;28;20543;-48
2021/06/22 07:33:07;;;;;;;3.72;2.60;;;;;;;;;;5098087;28;20039;-47
2021/06/22 07:35:33;;;;;;;4.15;2.85;;;;;;;;;;5112174;28;20413;-48
2021/06/22 07:38:00;;;;;;;3.72;2.88;;;;;;;;;;5112659;28;20023;-48
2021/06/22 07:40:26;;;;;;;4.20;2.40;;;;;;;;;;5105961;28;20020;-47
2021/06/22 07:42:53;;;;;;;3.45;2.50;;;;;;;;;;5094232;28;20483;-48
2021/06/22 07:45:19;;;;;;;3.92;2.35;;;;;;;;;;5112161;28;20034;-48
2021/06/22 07:47:45;;;;;;;6.00;3.38;;;;;;;;;;5112113;28;20107;-48
2021/06/22 07:50:12;;;;;;;4.43;2.70;;;;;;;;;;5110223;28;20098;-48
2021/06/22 07:52:39;;;;;;;5.82;2.40;;;;;;;;;;5107825;28;20027;-48
2021/06/22 07:55:06;;;;;;;3.40;2.35;;;;;;;;;;5097227;28;20028;-47
2021/06/22 07:57:32;;;;;;;2.83;2.13;;;;;;;;;;5100604;28;20098;-49
2021/06/22 07:59:58;;;;;;;6.32;2.75;;;;;;;;;;5113350;28;20023;-47
2021/06/22 08:02:24;;;;;;;5.45;2.85;;;;;;;;;;5116882;28;20020;-48
2021/06/22 08:04:50;;;;;;;7.63;3.08;;;;;;;;;;5114731;28;20498;-52
2021/06/22 08:07:16;;;;;;;5.90;2.58;;;;;;;;;;5116411;28;20023;-47
2021/06/22 08:09:41;;;;;;;4.85;2.35;;;;;;;;;;5099536;28;20032;-47
2021/06/22 08:12:08;;;;;;;6.63;3.17;;;;;;;;;;5107533;28;20039;-48
2021/06/22 08:14:34;;;;;;;9.50;3.05;;;;;;;;;;5096188;28;20498;-48
2021/06/22 08:17:00;;;;;;;4.97;2.50;;;;;;;;;;5104170;28;20027;-48
2021/06/22 08:19:26;;;;;;;6.75;2.72;;;;;;;;;;5115824;28;20034;-48
2021/06/22 08:21:52;;;;;;;7.82;3.55;;;;;;;;;;5107419;28;20027;-47
2021/06/22 08:24:18;;;;;;;5.95;3.85;;;;;;;;;;5097513;28;20028;-47
2021/06/22 08:26:44;;;;;;;4.78;2.53;;;;;;;;;;5115758;28;20157;-48
2021/06/22 08:29:10;;;;;;;6.45;2.95;;;;;;;;;;5108508;28;20028;-48
2021/06/22 08:31:36;;;;;;;5.85;2.85;;;;;;;;;;5104534;28;20565;-48
2021/06/22 08:34:02;;;;;;;7.68;3.38;;;;;;;;;;5114871;28;20475;-47
2021/06/22 08:36:28;;;;;;;8.95;2.95;;;;;;;;;;5115515;28;20073;-48
2021/06/22 08:38:54;;;;;;;7.38;2.95;;;;;;;;;;5113070;28;20523;-48
2021/06/22 08:41:21;;;;;;;6.70;2.70;;;;;;;;;;5109362;28;20378;-48
2021/06/22 08:43:50;;;;;;;7.07;3.33;;;;;;;;;;5116202;28;20039;-48
2021/06/22 08:46:16;;;;;;;9.50;3.50;;;;;;;;;;5114968;28;20038;-48
2021/06/22 08:48:42;;;;;;;11.00;3.53;;;;;;;;;;5114353;28;20474;-47
2021/06/22 08:51:08;;;;;;;6.82;3.47;;;;;;;;;;5101061;28;20103;-47
2021/06/22 08:53:35;;;;;;;9.13;3.20;;;;;;;;;;5102378;28;20031;-47
2021/06/22 08:56:00;;;;;;;15.13;3.45;;;;;;;;;;5108212;28;20028;-47
2021/06/22 08:58:26;;;;;;;15.32;3.10;;;;;;;;;;5111592;28;20031;-47
2021/06/22 09:00:54;;;;;;;6.13;3.20;;;;;;;;;;5114968;28;20019;-48
2021/06/22 09:03:24;;;;;;;6.40;3.05;;;;;;;;;;5111642;28;20185;-47
2021/06/22 09:05:53;;;;;;;11.95;4.13;;;;;;;;;;5107183;28;20033;-47
2021/06/22 09:08:21;;;;;;;12.25;4.22;;;;;;;;;;5114570;28;20047;-47
2021/06/22 09:10:47;;;;;;;11.65;3.13;;;;;;;;;;5115225;28;20463;-47
2021/06/22 09:13:15;;;;;;;7.03;3.13;;;;;;;;;;5109493;28;20036;-47
2021/06/22 09:15:42;;;;;;;5.38;3.15;;;;;;;;;;5103282;28;20078;-48
2021/06/22 09:18:25;;;;;;;4.65;2.55;;;;;;;;;;5110798;28;20401;-48
2021/06/22 09:20:51;;;;;;;7.75;3.30;;;;;;;;;;5108280;28;20118;-48
2021/06/22 09:23:18;;;;;;;8.75;3.15;;;;;;;;;;5115025;28;20168;-47
2021/06/22 09:25:46;;;;;;;6.78;3.10;;;;;;;;;;5112945;28;20020;-47
2021/06/22 09:28:12;;;;;;;5.40;2.97;;;;;;;;;;5102267;28;20032;-48
2021/06/22 09:30:46;;;;;;;6.75;3.53;;;;;;;;;;5100793;28;20071;-52
2021/06/22 09:33:17;;;;;;;8.93;3.65;;;;;;;;;;5113891;28;20054;-51
2021/06/22 09:35:44;;;;;;;7.50;3.70;;;;;;;;;;5113110;28;20016;-47
2021/06/22 09:38:10;;;;;;;6.22;3.10;;;;;;;;;;5114708;28;20028;-48
2021/06/22 09:40:36;;;;;;;7.20;3.50;;;;;;;;;;5089918;28;20038;-48
2021/06/22 09:43:02;;;;;;;11.35;3.50;;;;;;;;;;5103492;28;20016;-49
2021/06/22 09:45:29;;;;;;;5.32;2.95;;;;;;;;;;5102018;28;20104;-52
2021/06/22 09:48:00;;;;;;;11.98;3.70;;;;;;;;;;5113453;28;20044;-48
2021/06/22 09:50:35;;;;;;;5.95;2.50;;;;;;;;;;5110462;28;20028;-48
2021/06/22 09:53:20;;;;;;;5.97;3.38;;;;;;;;;;5105266;28;20054;-47
2021/06/22 09:55:46;;;;;;;5.20;3.17;;;;;;;;;;5097745;28;20032;-48
2021/06/22 09:58:13;;;;;;;6.57;3.05;;;;;;;;;;5112435;28;20076;-47
2021/06/22 10:00:39;;;;;;;6.10;3.22;;;;;;;;;;5114146;28;20516;-52
2021/06/22 10:03:05;;;;;;;4.43;2.53;;;;;;;;;;5107398;28;20476;-47
2021/06/22 10:05:31;;;;;;;6.53;2.67;;;;;;;;;;5105707;28;20822;-48
2021/06/22 10:07:57;;;;;;;3.78;2.88;;;;;;;;;;5103332;28;20103;-48
2021/06/22 10:10:35;;;;;;;3.85;2.47;;;;;;;;;;5096127;28;20054;-48
2021/06/22 10:13:01;;;;;;;5.40;2.90;;;;;;;;;;5100154;28;20109;-49
2021/06/22 10:15:27;;;;;;;4.25;2.60;;;;;;;;;;5102439;28;20020;-49
2021/06/22 10:17:53;;;;;;;9.07;3.38;;;;;;;;;;5103304;28;20036;-50
2021/06/22 10:20:19;;;;;;;4.30;2.88;;;;;;;;;;5112868;28;20118;-48
2021/06/22 10:22:47;;;;;;;2.83;2.53;;;;;;;;;;5093458;28;20114;-50
2021/06/22 10:25:14;;;;;;;3.15;2.38;;;;;;;;;;5107775;28;20027;-48
2021/06/22 10:27:40;;;;;;;3.22;2.53;;;;;;;;;;5096891;28;20460;-50
2021/06/22 10:30:08;;;;;;;2.90;2.22;;;;;;;;;;5107978;28;20115;-48
2021/06/22 10:32:35;;;;;;;4.93;2.58;;;;;;;;;;5108617;28;20036;-47
2021/06/22 10:35:02;;;;;;;2.42;2.15;;;;;;;;;;5110953;28;20059;-49
2021/06/22 10:37:33;;;;;;;2.47;2.08;;;;;;;;;;5101853;28;20108;-48
2021/06/22 10:40:01;;;;;;;4.68;3.00;;;;;;;;;;5113160;28;20035;-49
2021/06/22 10:42:38;;;;;;;4.30;2.78;;;;;;;;;;5108160;28;20110;-47
2021/06/22 10:45:04;;;;;;;2.97;2.58;;;;;;;;;;5103383;28;20030;-47
2021/06/22 10:47:37;;;;;;;3.40;2.50;;;;;;;;;;5109530;28;20110;-49
2021/06/22 10:50:29;;;;;;;3.10;2.22;;;;;;;;;;5112821;28;20119;-48
2021/06/22 10:52:56;;;;;;;5.03;3.35;;;;;;;;;;5108165;28;20076;-48
2021/06/22 10:55:28;;;;;;;3.75;2.78;;;;;;;;;;5101638;28;20036;-47
2021/06/22 10:57:58;;;;;;;4.38;3.13;;;;;;;;;;5110777;28;20035;-48
2021/06/22 11:00:24;;;;;;;6.35;2.63;;;;;;;;;;5112029;28;20478;-48
2021/06/22 11:02:59;;;;;;;7.57;2.90;;;;;;;;;;5110792;28;20035;-48
2021/06/22 11:05:26;;;;;;;6.25;2.83;;;;;;;;;;5111797;28;20031;-47
2021/06/22 11:08:11;;;;;;;4.22;2.63;;;;;;;;;;5109064;28;20554;-49
2021/06/22 11:10:37;;;;;;;5.60;2.70;;;;;;;;;;5105664;28;20471;-48
2021/06/22 11:13:04;;;;;;;5.20;3.00;;;;;;;;;;5112153;28;20116;-47
2021/06/22 11:15:47;;;;;;;6.30;3.00;;;;;;;;;;5112551;28;20559;-48
2021/06/22 11:18:17;;;;;;;4.88;2.88;;;;;;;;;;5093919;28;20034;-48
2021/06/22 11:20:44;;;;;;;6.53;3.03;;;;;;;;;;5103397;28;20032;-51
2021/06/22 11:23:12;;;;;;;5.50;2.63;;;;;;;;;;5102339;28;20032;-49
2021/06/22 11:26:00;;;;;;;4.47;3.08;;;;;;;;;;5111245;28;20470;-49
2021/06/22 11:28:26;;;;;;;5.07;2.92;;;;;;;;;;5107593;28;20043;-48
2021/06/22 11:30:53;;;;;;;4.50;2.55;;;;;;;;;;5106389;28;20075;-49
2021/06/22 11:33:29;;;;;;;6.22;3.20;;;;;;;;;;5105930;28;20467;-51
2021/06/22 11:36:14;;;;;;;5.72;3.17;;;;;;;;;;5099048;28;20086;-48
2021/06/22 11:38:40;;;;;;;4.90;2.72;;;;;;;;;;5106827;28;20102;-48
2021/06/22 11:41:12;;;;;;;5.28;2.30;;;;;;;;;;5112629;28;20103;-48
2021/06/22 11:43:58;;;;;;;5.05;2.72;;;;;;;;;;5103955;28;20521;-49
2021/06/22 11:46:28;;;;;;;3.90;2.20;;;;;;;;;;5107779;28;20098;-48
2021/06/22 11:48:56;;;;;;;4.05;2.45;;;;;;;;;;5103324;28;20028;-49
2021/06/22 11:51:41;;;;;;;5.53;2.13;;;;;;;;;;5092435;28;20115;-49
2021/06/22 11:54:07;;;;;;;6.40;2.95;;;;;;;;;;5103858;28;20470;-49
2021/06/22 11:56:34;;;;;;;4.40;2.88;;;;;;;;;;5110562;28;20118;-51
2021/06/22 11:59:01;;;;;;;5.85;2.88;;;;;;;;;;5112353;28;20015;-48
2021/06/22 12:01:27;;;;;;;7.25;2.70;;;;;;;;;;5111438;28;20042;-48
2021/06/22 12:03:54;;;;;;;6.82;2.22;;;;;;;;;;5111138;28;20066;-48
2021/06/22 12:06:23;;;;;;;4.13;2.20;;;;;;;;;;5111727;28;20024;-48
2021/06/22 12:08:49;;;;;;;6.07;2.80;;;;;;;;;;5104710;28;20019;-49
2021/06/22 12:11:29;;;;;;;3.90;2.45;;;;;;;;;;5111212;28;20024;-48
2021/06/22 12:13:55;;;;;;;4.75;2.30;;;;;;;;;;5097960;28;20024;-47
2021/06/22 12:16:23;;;;;;;8.77;2.55;;;;;;;;;;5094527;28;20024;-48
2021/06/22 12:18:49;;;;;;;8.25;2.55;;;;;;;;;;5106878;28;20051;-47
2021/06/22 12:21:15;;;;;;;4.50;1.83;;;;;;;;;;5110698;28;20125;-47
2021/06/22 12:23:42;;;;;;;3.83;2.28;;;;;;;;;;5100517;28;20015;-51
2021/06/22 12:26:09;;;;;;;4.20;2.20;;;;;;;;;;5109275;28;20089;-49
2021/06/22 12:28:35;;;;;;;3.85;2.10;;;;;;;;;;5110985;28;20032;-48
2021/06/22 12:31:01;;;;;;;3.47;2.40;;;;;;;;;;5111431;28;20097;-47
2021/06/22 12:33:35;;;;;;;5.18;1.90;;;;;;;;;;5110061;28;20044;-47
2021/06/22 12:36:03;;;;;;;6.53;2.10;;;;;;;;;;5106433;28;20157;-47
2021/06/22 12:38:29;;;;;;;4.95;2.38;;;;;;;;;;5093059;28;20103;-47
2021/06/22 12:40:57;;;;;;;6.65;2.20;;;;;;;;;;5102995;28;20051;-47
2021/06/22 12:43:39;;;;;;;5.90;2.22;;;;;;;;;;5105728;28;20101;-48
2021/06/22 12:46:06;;;;;;;4.13;2.08;;;;;;;;;;5111405;28;20028;-47
2021/06/22 12:48:32;;;;;;;3.10;1.73;;;;;;;;;;5115186;28;20383;-48
2021/06/22 12:50:58;;;;;;;2.92;1.88;;;;;;;;;;5114700;28;20165;-47
2021/06/22 12:53:24;;;;;;;3.75;1.83;;;;;;;;;;5114865;28;20023;-47
2021/06/22 12:55:55;;;;;;;3.75;1.67;;;;;;;;;;5114210;28;20072;-50
2021/06/22 12:58:21;;;;;;;3.45;1.75;;;;;;;;;;5102353;28;20020;-48
2021/06/22 13:00:51;;;;;;;3.38;1.73;;;;;;;;;;5109848;28;20032;-50
2021/06/22 13:03:19;;;;;;;6.47;1.60;;;;;;;;;;5108858;28;20040;-49
2021/06/22 13:05:49;;;;;;;4.05;1.92;;;;;;;;;;5109733;28;20026;-48
2021/06/22 13:08:17;;;;;;;4.50;1.65;;;;;;;;;;5109641;28;20028;-52
2021/06/22 13:10:56;;;;;;;6.50;2.17;;;;;;;;;;5113427;28;20782;-49
2021/06/22 13:13:26;;;;;;;7.22;2.53;;;;;;;;;;5103604;28;20067;-49
2021/06/22 13:16:12;;;;;;;6.15;2.03;;;;;;;;;;5107733;28;20031;-48
2021/06/22 13:18:57;;;;;;;6.93;2.30;;;;;;;;;;5113811;28;20524;-48
2021/06/22 13:21:25;;;;;;;6.65;2.40;;;;;;;;;;5110328;28;20024;-48
2021/06/22 13:23:51;;;;;;;6.13;2.05;;;;;;;;;;5102599;28;20035;-49
2021/06/22 13:26:17;;;;;;;4.68;1.88;;;;;;;;;;5104506;28;20048;-50
2021/06/22 13:28:54;;;;;;;3.83;1.83;;;;;;;;;;5107204;28;20089;-48
2021/06/22 13:31:20;;;;;;;8.38;2.03;;;;;;;;;;5109829;28;20063;-48
2021/06/22 13:33:46;;;;;;;3.88;1.80;;;;;;;;;;5114037;28;20027;-48
2021/06/22 13:36:19;;;;;;;4.53;1.40;;;;;;;;;;5101201;28;20024;-48
2021/06/22 13:39:00;;;;;;;2.97;1.45;;;;;;;;;;5094994;28;20035;-48
2021/06/22 13:41:26;;;;;;;3.33;1.20;;;;;;;;;;5109246;28;20039;-48
2021/06/22 13:43:52;;;;;;;5.65;1.70;;;;;;;;;;5111559;28;20038;-48
2021/06/22 13:46:25;;;;;;;5.88;1.63;;;;;;;;;;5113490;28;20114;-48
2021/06/22 13:48:52;;;;;;;3.87;1.47;;;;;;;;;;5114605;28;20023;-48
2021/06/22 13:51:28;;;;;;;2.05;0.98;;;;;;;;;;5114016;28;20043;-48
2021/06/22 13:54:04;;;;;;;3.53;1.58;;;;;;;;;;5110488;28;20032;-50
2021/06/22 13:56:31;;;;;;;5.32;2.00;;;;;;;;;;5107906;28;20020;-48
2021/06/22 13:58:57;;;;;;;5.70;2.25;;;;;;;;;;5113636;28;20024;-49
2021/06/22 14:01:23;;;;;;;3.95;2.03;;;;;;;;;;5114453;28;20410;-48
2021/06/22 14:03:49;;;;;;;4.00;1.83;;;;;;;;;;5114044;28;20097;-49
2021/06/22 14:06:16;;;;;;;9.20;2.28;;;;;;;;;;5109202;28;20102;-50
2021/06/22 14:08:42;;;;;;;3.50;1.90;;;;;;;;;;5084978;28;20031;-48
2021/06/22 14:11:08;;;;;;;3.80;1.88;;;;;;;;;;5105910;28;20038;-52
2021/06/22 14:13:34;;;;;;;4.05;2.17;;;;;;;;;;5112560;28;20027;-49
2021/06/22 14:16:01;;;;;;;3.58;1.70;;;;;;;;;;5112969;28;20507;-49
2021/06/22 14:18:27;;;;;;;4.68;1.80;;;;;;;;;;5113591;28;20491;-51
2021/06/22 14:20:53;;;;;;;4.78;1.50;;;;;;;;;;5101206;28;20073;-48
2021/06/22 14:23:20;;;;;;;8.60;1.60;;;;;;;;;;5099810;28;20027;-48
2021/06/22 14:25:46;;;;;;;5.45;1.58;;;;;;;;;;5113555;28;20103;-48
2021/06/22 14:28:17;;;;;;;2.78;1.40;;;;;;;;;;5113755;28;20035;-48
2021/06/22 14:30:44;;;;;;;2.08;1.10;;;;;;;;;;5106426;28;20039;-48
2021/06/22 14:33:10;;;;;;;4.13;1.90;;;;;;;;;;5099388;28;20040;-48
2021/06/22 14:35:36;;;;;;;5.03;1.73;;;;;;;;;;5113544;28;20371;-48
2021/06/22 14:38:02;;;;;;;6.03;1.45;;;;;;;;;;5113778;28;20028;-48
2021/06/22 14:40:28;;;;;;;4.63;1.77;;;;;;;;;;5105345;28;20020;-48